createdAt,value
2017-10-29T00:00:01.678Z,0
2017-10-29T00:01:12.246Z,0
2017-10-29T00:02:22.551Z,0
2017-10-29T00:03:32.862Z,0
2017-10-29T00:04:42.822Z,0
2017-10-29T00:05:53.109Z,0
2017-10-29T00:07:03.649Z,0
2017-10-29T00:08:13.940Z,0
2017-10-29T00:09:24.235Z,0
2017-10-29T00:10:34.555Z,0
2017-10-29T00:11:44.844Z,0
2017-10-29T00:12:55.394Z,0
2017-10-29T00:14:05.371Z,0
2017-10-29T00:15:15.657Z,0
2017-10-29T00:16:25.638Z,0
2017-10-29T00:17:35.927Z,0
2017-10-29T00:18:46.192Z,0
2017-10-29T00:19:56.482Z,0
2017-10-29T00:21:06.461Z,0
2017-10-29T00:22:16.093Z,0
2017-10-29T00:23:26.404Z,0
2017-10-29T00:24:36.962Z,0
2017-10-29T00:25:47.256Z,0
2017-10-29T00:26:56.891Z,0
2017-10-29T00:28:07.200Z,0
2017-10-29T00:29:17.496Z,0
2017-10-29T00:30:28.047Z,0
2017-10-29T00:31:38.007Z,0
2017-10-29T00:32:48.292Z,0
2017-10-29T00:33:58.612Z,0
2017-10-29T00:35:08.582Z,0
2017-10-29T00:36:18.826Z,0
2017-10-29T00:37:29.121Z,0
2017-10-29T00:38:39.099Z,0
2017-10-29T00:39:49.089Z,0
2017-10-29T00:40:59.053Z,0
2017-10-29T00:42:09.620Z,0
2017-10-29T00:43:19.589Z,0
2017-10-29T00:44:29.905Z,0
2017-10-29T00:45:40.221Z,0
2017-10-29T00:46:50.514Z,0
2017-10-29T00:48:00.739Z,0
2017-10-29T00:49:11.046Z,0
2017-10-29T00:50:21.327Z,0
2017-10-29T00:51:31.283Z,0
2017-10-29T00:52:41.605Z,0
2017-10-29T00:53:52.174Z,0
2017-10-29T00:55:02.157Z,0
2017-10-29T00:56:12.452Z,0
2017-10-29T00:57:22.431Z,0
2017-10-29T00:58:32.726Z,0
2017-10-29T00:59:43.279Z,0
2017-10-29T01:00:53.575Z,0
2017-10-29T01:02:03.876Z,0
2017-10-29T01:03:14.169Z,0
2017-10-29T01:04:24.130Z,0
2017-10-29T01:05:34.694Z,0
2017-10-29T01:06:44.344Z,0
2017-10-29T01:07:54.640Z,0
2017-10-29T01:09:04.936Z,0
2017-10-29T01:10:15.248Z,0
2017-10-29T01:11:25.801Z,0
2017-10-29T01:12:36.104Z,0
2017-10-29T01:13:46.097Z,0
2017-10-29T01:14:56.071Z,0
2017-10-29T01:16:06.032Z,0
2017-10-29T01:17:16.588Z,0
2017-10-29T01:18:26.548Z,0
2017-10-29T01:19:36.853Z,0
2017-10-29T01:20:47.151Z,0
2017-10-29T01:21:57.426Z,0
2017-10-29T01:23:07.636Z,0
2017-10-29T01:24:17.608Z,0
2017-10-29T01:25:27.581Z,0
2017-10-29T01:26:37.865Z,0
2017-10-29T01:27:47.852Z,0
2017-10-29T01:28:58.396Z,0
2017-10-29T01:30:08.409Z,0
2017-10-29T01:31:18.686Z,0
2017-10-29T01:32:28.990Z,0
2017-10-29T01:33:38.956Z,0
2017-10-29T01:34:49.169Z,0
2017-10-29T01:35:59.480Z,0
2017-10-29T01:37:09.137Z,0
2017-10-29T01:38:19.428Z,0
2017-10-29T01:39:29.743Z,0
2017-10-29T01:40:40.301Z,0
2017-10-29T01:41:50.602Z,0
2017-10-29T01:43:00.890Z,0
2017-10-29T01:44:10.868Z,0
2017-10-29T01:45:20.845Z,0
2017-10-29T01:46:31.382Z,0
2017-10-29T01:47:41.343Z,0
2017-10-29T01:48:51.639Z,0
2017-10-29T01:50:01.942Z,0
2017-10-29T01:51:12.233Z,0
2017-10-29T01:52:22.457Z,0
2017-10-29T01:53:32.105Z,0
2017-10-29T01:54:42.128Z,0
2017-10-29T01:55:51.766Z,0
2017-10-29T01:57:01.735Z,0
2017-10-29T01:58:12.279Z,0
2017-10-29T01:59:22.586Z,0
2017-10-29T02:00:32.565Z,0
2017-10-29T02:01:42.866Z,0
2017-10-29T02:02:53.163Z,0
2017-10-29T02:04:03.063Z,0
2017-10-29T02:05:13.354Z,0
2017-10-29T02:06:23.653Z,0
2017-10-29T02:07:33.941Z,0
2017-10-29T02:08:43.908Z,0
2017-10-29T02:09:54.460Z,0
2017-10-29T02:11:04.107Z,0
2017-10-29T02:12:14.407Z,0
2017-10-29T02:13:24.366Z,0
2017-10-29T02:14:34.663Z,0
2017-10-29T02:15:44.872Z,0
2017-10-29T02:16:54.853Z,0
2017-10-29T02:18:04.820Z,0
2017-10-29T02:19:15.116Z,0
2017-10-29T02:20:25.426Z,0
2017-10-29T02:21:35.651Z,0
2017-10-29T02:22:45.949Z,0
2017-10-29T02:23:56.233Z,0
2017-10-29T02:25:06.532Z,0
2017-10-29T02:26:16.826Z,0
2017-10-29T02:27:27.369Z,0
2017-10-29T02:28:37.660Z,0
2017-10-29T02:29:47.953Z,0
2017-10-29T02:30:58.266Z,0
2017-10-29T02:32:08.568Z,0
2017-10-29T02:33:19.130Z,0
2017-10-29T02:34:29.097Z,0
2017-10-29T02:35:39.078Z,0
2017-10-29T02:36:49.386Z,0
2017-10-29T02:37:59.693Z,0
2017-10-29T02:39:09.901Z,0
2017-10-29T02:40:20.193Z,0
2017-10-29T02:41:30.492Z,0
2017-10-29T02:42:40.777Z,0
2017-10-29T02:43:50.749Z,0
2017-10-29T02:45:01.328Z,0
2017-10-29T02:46:10.968Z,0
2017-10-29T02:47:20.936Z,0
2017-10-29T02:48:31.228Z,0
2017-10-29T02:49:41.519Z,0
2017-10-29T02:50:52.058Z,0
2017-10-29T02:52:02.347Z,0
2017-10-29T02:53:12.664Z,0
2017-10-29T02:54:22.969Z,0
2017-10-29T02:55:33.264Z,0
2017-10-29T02:56:43.492Z,0
2017-10-29T02:57:53.783Z,0
2017-10-29T02:59:04.082Z,0
2017-10-29T03:00:14.372Z,0
2017-10-29T03:01:24.695Z,0
2017-10-29T03:02:35.235Z,0
2017-10-29T03:03:45.195Z,0
2017-10-29T03:04:55.159Z,0
2017-10-29T03:06:05.455Z,0
2017-10-29T03:07:15.749Z,0
2017-10-29T03:08:25.977Z,0
2017-10-29T03:09:36.267Z,0
2017-10-29T03:10:46.229Z,0
2017-10-29T03:11:56.517Z,0
2017-10-29T03:13:06.807Z,0
2017-10-29T03:14:17.066Z,0
2017-10-29T03:15:26.708Z,0
2017-10-29T03:16:36.664Z,0
2017-10-29T03:17:46.963Z,0
2017-10-29T03:18:56.930Z,0
2017-10-29T03:20:07.479Z,0
2017-10-29T03:21:17.445Z,0
2017-10-29T03:22:27.741Z,0
2017-10-29T03:23:38.034Z,0
2017-10-29T03:24:48.317Z,0
2017-10-29T03:25:58.536Z,0
2017-10-29T03:27:08.501Z,0
2017-10-29T03:28:18.815Z,0
2017-10-29T03:29:29.108Z,0
2017-10-29T03:30:39.091Z,0
2017-10-29T03:31:49.652Z,0
2017-10-29T03:32:59.946Z,0
2017-10-29T03:34:10.250Z,0
2017-10-29T03:35:19.564Z,0
2017-10-29T03:36:29.852Z,0
2017-10-29T03:37:40.082Z,0
2017-10-29T03:38:49.717Z,0
2017-10-29T03:40:00.010Z,0
2017-10-29T03:41:10.305Z,0
2017-10-29T03:42:19.632Z,0
2017-10-29T03:43:29.850Z,0
2017-10-29T03:44:40.153Z,0
2017-10-29T03:45:50.119Z,0
2017-10-29T03:47:00.416Z,0
2017-10-29T03:48:10.713Z,0
2017-10-29T03:49:21.260Z,0
2017-10-29T03:50:31.544Z,0
2017-10-29T03:51:41.520Z,0
2017-10-29T03:52:51.831Z,0
2017-10-29T03:54:01.476Z,0
2017-10-29T03:55:12.020Z,0
2017-10-29T03:56:22.315Z,0
2017-10-29T03:57:32.009Z,0
2017-10-29T03:58:42.307Z,0
2017-10-29T03:59:52.263Z,0
2017-10-29T04:01:02.802Z,0
2017-10-29T04:02:13.098Z,0
2017-10-29T04:03:23.390Z,0
2017-10-29T04:04:33.685Z,0
2017-10-29T04:05:43.988Z,0
2017-10-29T04:06:54.580Z,0
2017-10-29T04:08:04.873Z,0
2017-10-29T04:09:15.193Z,0
2017-10-29T04:10:25.483Z,0
2017-10-29T04:11:35.770Z,0
2017-10-29T04:12:45.983Z,0
2017-10-29T04:13:56.290Z,0
2017-10-29T04:15:06.588Z,0
2017-10-29T04:16:16.267Z,0
2017-10-29T04:17:26.240Z,0
2017-10-29T04:18:36.834Z,0
2017-10-29T04:19:46.791Z,0
2017-10-29T04:20:57.110Z,0
2017-10-29T04:22:07.395Z,0
2017-10-29T04:23:17.680Z,0
2017-10-29T04:24:28.219Z,0
2017-10-29T04:25:38.510Z,0
2017-10-29T04:26:48.497Z,0
2017-10-29T04:27:58.795Z,0
2017-10-29T04:29:09.084Z,0
2017-10-29T04:30:19.621Z,0
2017-10-29T04:31:29.614Z,0
2017-10-29T04:32:39.580Z,0
2017-10-29T04:33:49.879Z,0
2017-10-29T04:34:59.845Z,0
2017-10-29T04:36:10.066Z,0
2017-10-29T04:37:20.372Z,0
2017-10-29T04:38:30.657Z,0
2017-10-29T04:39:40.943Z,0
2017-10-29T04:40:50.923Z,0
2017-10-29T04:42:01.462Z,0
2017-10-29T04:43:11.754Z,0
2017-10-29T04:44:22.035Z,0
2017-10-29T04:45:31.657Z,0
2017-10-29T04:46:41.950Z,0
2017-10-29T04:47:52.155Z,0
2017-10-29T04:49:02.450Z,0
2017-10-29T04:50:12.734Z,0
2017-10-29T04:51:22.710Z,0
2017-10-29T04:52:32.995Z,0
2017-10-29T04:53:43.541Z,0
2017-10-29T04:54:53.830Z,0
2017-10-29T04:56:04.118Z,0
2017-10-29T04:57:14.408Z,0
2017-10-29T04:58:24.373Z,0
2017-10-29T04:59:34.966Z,0
2017-10-29T05:00:45.273Z,0
2017-10-29T05:01:55.565Z,0
2017-10-29T05:03:05.869Z,0
2017-10-29T05:04:16.178Z,0
2017-10-29T05:05:26.391Z,0
2017-10-29T05:06:36.675Z,0
2017-10-29T05:07:46.968Z,0
2017-10-29T05:08:56.963Z,0
2017-10-29T05:10:07.245Z,0
2017-10-29T05:11:17.799Z,0
2017-10-29T05:12:28.087Z,0
2017-10-29T05:13:38.078Z,0
2017-10-29T05:14:48.049Z,0
2017-10-29T05:15:58.337Z,0
2017-10-29T05:17:08.890Z,0
2017-10-29T05:18:19.200Z,0
2017-10-29T05:19:29.478Z,0
2017-10-29T05:20:39.464Z,0
2017-10-29T05:21:49.749Z,0
2017-10-29T05:23:00.301Z,4
2017-10-29T05:24:10.583Z,4
2017-10-29T05:25:20.877Z,4
2017-10-29T05:26:30.515Z,4
2017-10-29T05:27:40.803Z,8
2017-10-29T05:28:51.346Z,8
2017-10-29T05:30:01.320Z,8
2017-10-29T05:31:11.616Z,12
2017-10-29T05:32:21.579Z,12
2017-10-29T05:33:31.867Z,16
2017-10-29T05:34:42.427Z,16
2017-10-29T05:35:52.716Z,20
2017-10-29T05:37:03.004Z,24
2017-10-29T05:38:13.290Z,28
2017-10-29T05:39:23.251Z,36
2017-10-29T05:40:33.516Z,52
2017-10-29T05:41:43.814Z,64
2017-10-29T05:42:54.105Z,72
2017-10-29T05:44:04.396Z,88
2017-10-29T05:45:14.356Z,104
2017-10-29T05:46:24.914Z,112
2017-10-29T05:47:35.218Z,116
2017-10-29T05:48:45.512Z,100
2017-10-29T05:49:55.821Z,128
2017-10-29T05:51:06.101Z,144
2017-10-29T05:52:15.986Z,160
2017-10-29T05:53:26.274Z,192
2017-10-29T05:54:36.567Z,200
2017-10-29T05:55:46.864Z,196
2017-10-29T05:56:57.160Z,204
2017-10-29T05:58:07.375Z,208
2017-10-29T05:59:17.676Z,284
2017-10-29T06:00:27.971Z,328
2017-10-29T06:01:37.936Z,424
2017-10-29T06:02:48.239Z,580
2017-10-29T06:03:58.139Z,664
2017-10-29T06:05:08.423Z,492
2017-10-29T06:06:18.709Z,428
2017-10-29T06:07:28.666Z,420
2017-10-29T06:08:38.325Z,280
2017-10-29T06:09:48.892Z,260
2017-10-29T06:10:59.178Z,264
2017-10-29T06:12:09.483Z,256
2017-10-29T06:13:19.443Z,212
2017-10-29T06:14:29.727Z,228
2017-10-29T06:15:40.290Z,300
2017-10-29T06:16:50.579Z,280
2017-10-29T06:18:00.872Z,344
2017-10-29T06:19:11.159Z,440
2017-10-29T06:20:21.466Z,592
2017-10-29T06:21:31.679Z,736
2017-10-29T06:22:41.672Z,884
2017-10-29T06:23:51.316Z,668
2017-10-29T06:25:01.276Z,580
2017-10-29T06:26:11.244Z,488
2017-10-29T06:27:21.449Z,432
2017-10-29T06:28:31.763Z,444
2017-10-29T06:29:41.731Z,420
2017-10-29T06:30:52.023Z,360
2017-10-29T06:32:02.313Z,336
2017-10-29T06:33:12.855Z,412
2017-10-29T06:34:23.144Z,532
2017-10-29T06:35:33.428Z,728
2017-10-29T06:36:43.737Z,732
2017-10-29T06:37:54.025Z,688
2017-10-29T06:39:04.232Z,608
2017-10-29T06:40:14.538Z,556
2017-10-29T06:41:24.840Z,548
2017-10-29T06:42:34.166Z,640
2017-10-29T06:43:44.455Z,780
2017-10-29T06:44:54.999Z,1092
2017-10-29T06:46:05.287Z,1144
2017-10-29T06:47:15.249Z,1276
2017-10-29T06:48:25.549Z,1124
2017-10-29T06:49:35.834Z,1424
2017-10-29T06:50:46.374Z,2064
2017-10-29T06:51:56.023Z,1564
2017-10-29T06:53:06.317Z,1332
2017-10-29T06:54:15.954Z,1584
2017-10-29T06:55:26.249Z,2348
2017-10-29T06:56:36.479Z,2328
2017-10-29T06:57:46.773Z,3348
2017-10-29T06:58:57.055Z,3660
2017-10-29T07:00:07.370Z,3936
2017-10-29T07:01:17.664Z,4240
2017-10-29T07:02:28.204Z,5420
2017-10-29T07:03:38.515Z,5188
2017-10-29T07:04:48.488Z,5100
2017-10-29T07:05:58.460Z,4928
2017-10-29T07:07:08.772Z,4492
2017-10-29T07:08:19.317Z,4692
2017-10-29T07:09:29.276Z,4644
2017-10-29T07:10:39.613Z,4680
2017-10-29T07:11:49.573Z,5404
2017-10-29T07:12:59.580Z,4728
2017-10-29T07:14:09.795Z,4704
2017-10-29T07:15:20.089Z,6008
2017-10-29T07:16:30.379Z,6488
2017-10-29T07:17:40.683Z,5736
2017-10-29T07:18:50.985Z,5036
2017-10-29T07:20:01.208Z,4856
2017-10-29T07:21:11.515Z,5004
2017-10-29T07:22:21.826Z,4424
2017-10-29T07:23:32.131Z,3772
2017-10-29T07:24:42.095Z,4244
2017-10-29T07:25:52.685Z,5168
2017-10-29T07:27:02.974Z,4996
2017-10-29T07:28:13.266Z,5852
2017-10-29T07:29:23.241Z,4460
2017-10-29T07:30:33.531Z,2976
2017-10-29T07:31:44.101Z,3040
2017-10-29T07:32:54.391Z,3004
2017-10-29T07:34:04.685Z,4320
2017-10-29T07:35:14.982Z,4024
2017-10-29T07:36:25.276Z,4468
2017-10-29T07:37:35.863Z,5164
2017-10-29T07:38:45.916Z,4456
2017-10-29T07:39:55.895Z,3792
2017-10-29T07:41:06.189Z,5544
2017-10-29T07:42:16.490Z,6380
2017-10-29T07:43:27.041Z,4288
2017-10-29T07:44:37.329Z,4108
2017-10-29T07:45:47.659Z,3720
2017-10-29T07:46:57.635Z,3876
2017-10-29T07:48:07.587Z,5992
2017-10-29T07:49:18.131Z,5648
2017-10-29T07:50:28.464Z,4944
2017-10-29T07:51:38.749Z,3908
2017-10-29T07:52:48.724Z,4764
2017-10-29T07:53:59.027Z,5940
2017-10-29T07:55:08.973Z,5916
2017-10-29T07:56:19.274Z,5252
2017-10-29T07:57:29.241Z,3840
2017-10-29T07:58:38.885Z,3320
2017-10-29T07:59:48.858Z,3688
2017-10-29T08:00:59.078Z,3820
2017-10-29T08:02:09.389Z,5720
2017-10-29T08:03:19.700Z,5072
2017-10-29T08:04:29.999Z,3956
2017-10-29T08:05:40.288Z,4292
2017-10-29T08:06:50.904Z,3416
2017-10-29T08:08:01.215Z,2520
2017-10-29T08:09:11.496Z,3688
2017-10-29T08:10:21.488Z,4060
2017-10-29T08:11:31.779Z,4520
2017-10-29T08:12:42.400Z,4956
2017-10-29T08:13:52.700Z,4368
2017-10-29T08:15:02.992Z,4036
2017-10-29T08:16:13.285Z,6144
2017-10-29T08:17:23.249Z,4800
2017-10-29T08:18:33.796Z,5216
2017-10-29T08:19:43.771Z,7632
2017-10-29T08:20:54.053Z,6232
2017-10-29T08:22:03.689Z,4300
2017-10-29T08:23:13.981Z,4040
2017-10-29T08:24:24.245Z,5196
2017-10-29T08:25:34.224Z,6624
2017-10-29T08:26:44.180Z,5484
2017-10-29T08:27:54.487Z,4872
2017-10-29T08:29:04.783Z,5444
2017-10-29T08:30:15.010Z,3872
2017-10-29T08:31:25.332Z,4648
2017-10-29T08:32:35.633Z,5856
2017-10-29T08:33:45.599Z,6100
2017-10-29T08:34:55.896Z,6464
2017-10-29T08:36:06.443Z,8272
2017-10-29T08:37:16.739Z,12532
2017-10-29T08:38:27.026Z,13916
2017-10-29T08:39:37.322Z,10536
2017-10-29T08:40:47.619Z,16344
2017-10-29T08:41:58.157Z,13792
2017-10-29T08:43:08.143Z,15068
2017-10-29T08:44:18.453Z,13312
2017-10-29T08:45:28.415Z,10244
2017-10-29T08:46:38.715Z,8712
2017-10-29T08:47:48.933Z,7260
2017-10-29T08:48:59.248Z,5736
2017-10-29T08:50:09.586Z,5592
2017-10-29T08:51:19.213Z,5664
2017-10-29T08:52:29.193Z,5856
2017-10-29T08:53:39.752Z,4972
2017-10-29T08:54:49.396Z,5016
2017-10-29T08:55:59.671Z,4820
2017-10-29T08:57:09.329Z,5536
2017-10-29T08:58:19.632Z,7552
2017-10-29T08:59:30.183Z,7636
2017-10-29T09:00:40.149Z,6416
2017-10-29T09:01:50.449Z,7916
2017-10-29T09:03:00.417Z,7392
2017-10-29T09:04:10.709Z,7816
2017-10-29T09:05:21.256Z,6796
2017-10-29T09:06:31.235Z,6136
2017-10-29T09:07:41.520Z,6644
2017-10-29T09:08:51.177Z,6148
2017-10-29T09:10:01.147Z,7220
2017-10-29T09:11:11.387Z,8248
2017-10-29T09:12:21.681Z,9932
2017-10-29T09:13:31.987Z,7784
2017-10-29T09:14:41.962Z,7140
2017-10-29T09:15:51.935Z,7696
2017-10-29T09:17:02.158Z,10716
2017-10-29T09:18:12.449Z,11300
2017-10-29T09:19:22.766Z,11364
2017-10-29T09:20:33.046Z,9920
2017-10-29T09:21:43.010Z,9868
2017-10-29T09:22:53.245Z,13000
2017-10-29T09:24:03.563Z,15464
2017-10-29T09:25:13.879Z,18112
2017-10-29T09:26:24.175Z,19584
2017-10-29T09:27:34.496Z,23424
2017-10-29T09:28:44.724Z,25792
2017-10-29T09:29:55.052Z,21344
2017-10-29T09:31:05.341Z,18528
2017-10-29T09:32:15.638Z,14404
2017-10-29T09:33:25.938Z,12272
2017-10-29T09:34:36.497Z,11660
2017-10-29T09:35:46.464Z,11788
2017-10-29T09:36:56.758Z,13088
2017-10-29T09:38:07.072Z,14436
2017-10-29T09:39:17.357Z,13512
2017-10-29T09:40:27.599Z,11744
2017-10-29T09:41:37.898Z,11212
2017-10-29T09:42:48.231Z,14900
2017-10-29T09:43:58.221Z,17824
2017-10-29T09:45:08.516Z,15884
2017-10-29T09:46:19.076Z,11128
2017-10-29T09:47:29.047Z,8616
2017-10-29T09:48:39.029Z,6284
2017-10-29T09:49:49.301Z,5448
2017-10-29T09:50:59.596Z,5864
2017-10-29T09:52:09.814Z,5396
2017-10-29T09:53:19.804Z,5424
2017-10-29T09:54:29.770Z,6068
2017-10-29T09:55:39.739Z,5052
2017-10-29T09:56:49.723Z,6188
2017-10-29T09:57:59.951Z,5860
2017-10-29T09:59:10.258Z,7856
2017-10-29T10:00:20.226Z,8360
2017-10-29T10:01:30.573Z,9372
2017-10-29T10:02:40.892Z,8272
2017-10-29T10:03:51.122Z,8352
2017-10-29T10:05:01.411Z,8672
2017-10-29T10:06:11.702Z,10604
2017-10-29T10:07:21.678Z,10840
2017-10-29T10:08:31.980Z,10216
2017-10-29T10:09:42.531Z,11352
2017-10-29T10:10:52.843Z,12460
2017-10-29T10:12:02.818Z,11932
2017-10-29T10:13:13.137Z,14192
2017-10-29T10:14:23.433Z,13044
2017-10-29T10:15:33.654Z,10980
2017-10-29T10:16:43.970Z,12244
2017-10-29T10:17:54.267Z,14104
2017-10-29T10:19:04.565Z,14852
2017-10-29T10:20:14.858Z,15980
2017-10-29T10:21:25.412Z,14288
2017-10-29T10:22:35.750Z,17984
2017-10-29T10:23:45.736Z,19744
2017-10-29T10:24:55.716Z,23168
2017-10-29T10:26:06.022Z,23552
2017-10-29T10:27:16.560Z,23872
2017-10-29T10:28:26.854Z,27072
2017-10-29T10:29:36.840Z,29056
2017-10-29T10:30:46.820Z,40448
2017-10-29T10:31:57.128Z,55040
2017-10-29T10:33:07.683Z,38144
2017-10-29T10:34:17.663Z,28320
2017-10-29T10:35:27.967Z,26304
2017-10-29T10:36:37.942Z,26080
2017-10-29T10:37:48.062Z,22464
2017-10-29T10:38:58.309Z,21152
2017-10-29T10:40:08.599Z,20128
2017-10-29T10:41:18.564Z,20512
2017-10-29T10:42:28.876Z,21216
2017-10-29T10:43:38.853Z,21120
2017-10-29T10:44:49.484Z,19968
2017-10-29T10:45:59.810Z,17920
2017-10-29T10:47:09.762Z,15092
2017-10-29T10:48:19.743Z,12248
2017-10-29T10:49:30.060Z,10128
2017-10-29T10:50:40.277Z,8540
2017-10-29T10:51:49.941Z,6120
2017-10-29T10:52:59.910Z,4440
2017-10-29T10:54:10.212Z,7828
2017-10-29T10:55:20.534Z,8264
2017-10-29T10:56:30.456Z,8928
2017-10-29T10:57:40.769Z,11032
2017-10-29T10:58:51.093Z,10752
2017-10-29T11:00:00.747Z,10756
2017-10-29T11:01:11.042Z,9316
2017-10-29T11:02:21.585Z,7832
2017-10-29T11:03:31.894Z,7152
2017-10-29T11:04:41.874Z,6416
2017-10-29T11:05:52.175Z,5816
2017-10-29T11:07:02.508Z,4896
2017-10-29T11:08:12.738Z,4008
2017-10-29T11:09:23.044Z,4716
2017-10-29T11:10:32.689Z,5056
2017-10-29T11:11:42.985Z,4668
2017-10-29T11:12:53.295Z,4268
2017-10-29T11:14:03.861Z,5148
2017-10-29T11:15:14.150Z,5124
2017-10-29T11:16:24.108Z,5340
2017-10-29T11:17:34.403Z,4672
2017-10-29T11:18:44.704Z,5184
2017-10-29T11:19:55.256Z,5712
2017-10-29T11:21:05.571Z,5824
2017-10-29T11:22:15.877Z,5536
2017-10-29T11:23:26.202Z,5712
2017-10-29T11:24:36.170Z,6440
2017-10-29T11:25:46.772Z,7796
2017-10-29T11:26:56.760Z,8252
2017-10-29T11:28:07.047Z,7972
2017-10-29T11:29:17.043Z,7692
2017-10-29T11:30:27.028Z,7876
2017-10-29T11:31:37.570Z,8336
2017-10-29T11:32:47.864Z,8908
2017-10-29T11:33:57.842Z,8988
2017-10-29T11:35:07.817Z,8516
2017-10-29T11:36:18.098Z,8620
2017-10-29T11:37:28.654Z,9480
2017-10-29T11:38:38.619Z,11164
2017-10-29T11:39:48.592Z,12532
2017-10-29T11:40:58.882Z,12460
2017-10-29T11:42:09.184Z,11208
2017-10-29T11:43:19.733Z,10112
2017-10-29T11:44:30.037Z,9464
2017-10-29T11:45:40.333Z,9592
2017-10-29T11:46:49.985Z,9336
2017-10-29T11:47:59.956Z,8788
2017-10-29T11:49:10.183Z,8836
2017-10-29T11:50:20.470Z,9896
2017-10-29T11:51:30.799Z,10956
2017-10-29T11:52:41.109Z,11524
2017-10-29T11:53:51.136Z,9796
2017-10-29T11:55:01.696Z,7916
2017-10-29T11:56:11.662Z,6996
2017-10-29T11:57:21.952Z,6728
2017-10-29T11:58:32.257Z,6452
2017-10-29T11:59:42.543Z,6568
2017-10-29T12:00:53.083Z,6756
2017-10-29T12:02:03.056Z,7048
2017-10-29T12:03:13.368Z,7452
2017-10-29T12:04:23.329Z,8652
2017-10-29T12:05:33.633Z,10712
2017-10-29T12:06:44.196Z,12456
2017-10-29T12:07:54.487Z,14556
2017-10-29T12:09:04.796Z,17504
2017-10-29T12:10:15.122Z,18656
2017-10-29T12:11:24.771Z,19104
2017-10-29T12:12:35.337Z,21696
2017-10-29T12:13:45.635Z,22816
2017-10-29T12:14:55.936Z,19776
2017-10-29T12:16:06.236Z,16788
2017-10-29T12:17:16.204Z,15128
2017-10-29T12:18:26.093Z,14140
2017-10-29T12:19:36.084Z,13800
2017-10-29T12:20:46.401Z,13232
2017-10-29T12:21:56.699Z,12892
2017-10-29T12:23:06.673Z,12948
2017-10-29T12:24:17.241Z,12316
2017-10-29T12:25:27.553Z,11268
2017-10-29T12:26:37.858Z,10484
2017-10-29T12:27:48.157Z,10436
2017-10-29T12:28:58.453Z,10796
2017-10-29T12:30:08.682Z,10664
2017-10-29T12:31:18.327Z,10152
2017-10-29T12:32:28.633Z,10096
2017-10-29T12:33:38.943Z,8960
2017-10-29T12:34:49.237Z,6876
2017-10-29T12:35:59.776Z,4768
2017-10-29T12:37:09.753Z,3348
2017-10-29T12:38:20.070Z,2936
2017-10-29T12:39:30.358Z,3052
2017-10-29T12:40:40.664Z,3632
2017-10-29T12:41:50.948Z,4308
2017-10-29T12:43:01.237Z,4132
2017-10-29T12:44:11.198Z,3652
2017-10-29T12:45:21.494Z,3028
2017-10-29T12:46:31.776Z,3180
2017-10-29T12:47:42.337Z,3588
2017-10-29T12:48:52.333Z,3628
2017-10-29T12:50:02.299Z,3744
2017-10-29T12:51:11.966Z,3108
2017-10-29T12:52:21.941Z,2912
2017-10-29T12:53:32.500Z,3480
2017-10-29T12:54:42.490Z,3516
2017-10-29T12:55:52.794Z,4048
2017-10-29T12:57:03.088Z,6172
2017-10-29T12:58:13.408Z,8288
2017-10-29T12:59:23.943Z,9840
2017-10-29T13:00:34.255Z,11268
2017-10-29T13:01:44.547Z,12516
2017-10-29T13:02:54.540Z,13408
2017-10-29T13:04:04.858Z,13644
2017-10-29T13:05:15.416Z,13572
2017-10-29T13:06:25.725Z,13280
2017-10-29T13:07:35.704Z,12872
2017-10-29T13:08:45.994Z,12824
2017-10-29T13:09:55.994Z,13520
2017-10-29T13:11:06.571Z,14776
2017-10-29T13:12:16.221Z,16104
2017-10-29T13:13:26.518Z,16860
2017-10-29T13:14:36.849Z,18112
2017-10-29T13:15:47.167Z,19008
2017-10-29T13:16:57.379Z,22624
2017-10-29T13:18:07.676Z,53856
2017-10-29T13:19:17.997Z,64064
2017-10-29T13:20:28.302Z,54496
2017-10-29T13:21:38.278Z,72224
2017-10-29T13:22:48.823Z,41984
2017-10-29T13:23:58.808Z,90336
2017-10-29T13:25:09.141Z,87168
2017-10-29T13:26:19.460Z,93824
2017-10-29T13:27:29.787Z,93216
2017-10-29T13:28:40.006Z,27552
2017-10-29T13:29:50.334Z,93152
2017-10-29T13:31:00.662Z,63680
2017-10-29T13:32:10.971Z,62464
2017-10-29T13:33:21.277Z,95008
2017-10-29T13:34:31.850Z,86816
2017-10-29T13:35:42.148Z,91776
2017-10-29T13:36:52.121Z,92864
2017-10-29T13:38:02.422Z,84640
2017-10-29T13:39:12.744Z,90080
2017-10-29T13:40:23.295Z,83488
2017-10-29T13:41:33.594Z,84416
2017-10-29T13:42:43.585Z,79456
2017-10-29T13:43:53.577Z,87072
2017-10-29T13:45:03.882Z,86560
2017-10-29T13:46:14.450Z,19776
2017-10-29T13:47:24.767Z,86912
2017-10-29T13:48:35.066Z,87232
2017-10-29T13:49:45.028Z,76096
2017-10-29T13:50:55.336Z,77120
2017-10-29T13:52:05.901Z,74656
2017-10-29T13:53:16.203Z,75008
2017-10-29T13:54:26.500Z,47776
2017-10-29T13:55:36.469Z,46368
2017-10-29T13:56:46.779Z,79904
2017-10-29T13:57:57.008Z,77088
2017-10-29T13:59:07.315Z,77696
2017-10-29T14:00:17.645Z,83648
2017-10-29T14:01:27.659Z,87968
2017-10-29T14:02:37.984Z,38880
2017-10-29T14:03:48.264Z,51584
2017-10-29T14:04:58.236Z,83584
2017-10-29T14:06:08.228Z,31584
2017-10-29T14:07:18.575Z,52224
2017-10-29T14:08:28.898Z,23392
2017-10-29T14:09:39.148Z,85184
2017-10-29T14:10:49.446Z,80224
2017-10-29T14:11:59.744Z,89216
2017-10-29T14:13:10.056Z,32800
2017-10-29T14:14:20.377Z,67104
2017-10-29T14:15:30.933Z,26976
2017-10-29T14:16:41.234Z,31008
2017-10-29T14:17:51.533Z,46784
2017-10-29T14:19:01.838Z,44640
2017-10-29T14:20:12.131Z,75488
2017-10-29T14:21:22.678Z,66432
2017-10-29T14:22:32.662Z,22112
2017-10-29T14:23:42.641Z,16352
2017-10-29T14:24:52.961Z,12444
2017-10-29T14:26:02.948Z,11576
2017-10-29T14:27:13.501Z,11316
2017-10-29T14:28:23.468Z,11156
2017-10-29T14:29:33.768Z,10892
2017-10-29T14:30:44.092Z,10128
2017-10-29T14:31:54.082Z,9376
2017-10-29T14:33:04.624Z,8516
2017-10-29T14:34:14.924Z,7740
2017-10-29T14:35:25.246Z,7452
2017-10-29T14:36:35.209Z,7164
2017-10-29T14:37:45.172Z,7780
2017-10-29T14:38:55.719Z,7920
2017-10-29T14:40:05.378Z,8172
2017-10-29T14:41:15.685Z,8552
2017-10-29T14:42:25.661Z,8896
2017-10-29T14:43:35.980Z,9112
2017-10-29T14:44:46.549Z,11352
2017-10-29T14:45:56.541Z,10076
2017-10-29T14:47:06.857Z,9180
2017-10-29T14:48:17.188Z,9760
2017-10-29T14:49:27.190Z,15584
2017-10-29T14:50:37.754Z,8612
2017-10-29T14:51:48.084Z,19616
2017-10-29T14:52:58.390Z,22432
2017-10-29T14:54:08.368Z,26816
2017-10-29T14:55:18.686Z,21504
2017-10-29T14:56:29.243Z,16160
2017-10-29T14:57:39.559Z,16960
2017-10-29T14:58:49.857Z,8132
2017-10-29T15:00:00.166Z,6628
2017-10-29T15:01:09.819Z,5468
2017-10-29T15:02:20.382Z,5864
2017-10-29T15:03:30.674Z,6608
2017-10-29T15:04:40.964Z,5340
2017-10-29T15:05:51.263Z,5016
2017-10-29T15:07:01.568Z,5128
2017-10-29T15:08:12.125Z,7616
2017-10-29T15:09:22.408Z,4912
2017-10-29T15:10:32.405Z,4728
2017-10-29T15:11:42.711Z,4536
2017-10-29T15:12:53.017Z,4348
2017-10-29T15:14:03.615Z,4196
2017-10-29T15:15:13.914Z,4052
2017-10-29T15:16:23.888Z,3896
2017-10-29T15:17:34.188Z,3740
2017-10-29T15:18:43.848Z,3580
2017-10-29T15:19:54.414Z,3444
2017-10-29T15:21:04.737Z,3272
2017-10-29T15:22:15.050Z,3012
2017-10-29T15:23:25.016Z,2696
2017-10-29T15:24:35.311Z,2508
2017-10-29T15:25:45.536Z,2364
2017-10-29T15:26:55.895Z,2308
2017-10-29T15:28:06.223Z,2208
2017-10-29T15:29:16.195Z,2148
2017-10-29T15:30:26.516Z,2056
2017-10-29T15:31:37.087Z,1952
2017-10-29T15:32:47.380Z,1844
2017-10-29T15:33:57.353Z,1732
2017-10-29T15:35:07.659Z,1600
2017-10-29T15:36:17.956Z,1464
2017-10-29T15:37:28.512Z,1308
2017-10-29T15:38:38.839Z,1148
2017-10-29T15:39:49.155Z,1016
2017-10-29T15:40:59.463Z,916
2017-10-29T15:42:09.762Z,824
2017-10-29T15:43:20.321Z,708
2017-10-29T15:44:30.004Z,584
2017-10-29T15:45:40.297Z,532
2017-10-29T15:46:50.598Z,544
2017-10-29T15:48:00.894Z,536
2017-10-29T15:49:11.123Z,500
2017-10-29T15:50:21.425Z,456
2017-10-29T15:51:31.741Z,404
2017-10-29T15:52:42.096Z,344
2017-10-29T15:53:52.390Z,300
2017-10-29T15:55:02.960Z,260
2017-10-29T15:56:13.407Z,220
2017-10-29T15:57:23.031Z,188
2017-10-29T15:58:33.002Z,160
2017-10-29T15:59:43.301Z,132
2017-10-29T16:00:53.840Z,108
2017-10-29T16:02:04.136Z,92
2017-10-29T16:03:14.441Z,72